Hyannis, Massachusetts
Current Conditions -  °F | °C
As of 4:26 AM on Thursday 23 Oct 2014 (Local Time) from KHYA Reporting Station
Light Rain Light Rain  
Wind Chill: 60°   Ceiling: 9000
Heat Index: 60°   Visibility: 9mi
Dew Point: 58°   Wind: 12mph
Humidity: 93%   Direction: 50°NE
Pressure: 29.53"   Gusts: 21mph
Location:  41.65°N, 70.28°W
Report Text: KHYA 230826Z 05010G18KT 9SM -RA SCT009 SCT070 OVC090 16/14 A2953 RMK AO2 RAB13 P0001 T01560144
Loading
Personal Weather Stations






























Interactive Weather Map
Tropical Storm Tracking
New forecast layout! Learn more

10-Day Weather Forecast

Advertisements
Track Severe Weather on mobile